createdAt,value
2022-12-15T00:01:31.510Z,83.80
2022-12-15T00:04:35.222Z,83.60
2022-12-15T00:07:41.801Z,83.70
2022-12-15T00:10:45.922Z,83.60
2022-12-15T00:13:50.119Z,83.80
2022-12-15T00:16:54.395Z,84.00
2022-12-15T00:20:00.846Z,83.90
2022-12-15T00:23:04.458Z,84.40
2022-12-15T00:26:08.265Z,84.40
2022-12-15T00:29:12.060Z,84.10
2022-12-15T00:32:15.944Z,84.00
2022-12-15T00:35:20.028Z,84.00
2022-12-15T00:38:32.346Z,84.30
2022-12-15T00:41:18.899Z,84.80
2022-12-15T00:44:04.790Z,85.50
2022-12-15T00:46:55.568Z,84.50
2022-12-15T00:49:59.874Z,84.30
2022-12-15T00:53:03.914Z,84.30
2022-12-15T00:56:10.204Z,84.20
2022-12-15T00:59:14.670Z,84.00
2022-12-15T01:02:19.269Z,84.00
2022-12-15T01:05:25.193Z,84.10
2022-12-15T01:08:29.259Z,84.00
2022-12-15T01:11:33.264Z,84.10
2022-12-15T01:14:37.754Z,84.40
2022-12-15T01:17:42.233Z,84.90
2022-12-15T01:20:27.972Z,85.10
2022-12-15T01:23:13.458Z,85.00
2022-12-15T01:25:59.589Z,84.80
2022-12-15T01:28:44.989Z,84.80
2022-12-15T01:31:32.437Z,85.60
2022-12-15T01:34:22.715Z,85.70
2022-12-15T01:37:08.067Z,86.00
2022-12-15T01:40:14.193Z,86.00
2022-12-15T01:43:04.655Z,85.20
2022-12-15T01:46:04.708Z,85.10
2022-12-15T01:48:57.047Z,85.10
2022-12-15T01:51:47.489Z,84.20
2022-12-15T01:54:42.980Z,84.10
2022-12-15T01:57:32.167Z,84.00
2022-12-15T02:00:18.225Z,83.80
2022-12-15T02:06:22.988Z,83.60
2022-12-15T02:09:08.782Z,83.50
2022-12-15T02:12:16.430Z,83.50
2022-12-15T02:15:20.649Z,83.60
2022-12-15T02:18:24.837Z,85.10
2022-12-15T02:21:28.741Z,84.30
2022-12-15T02:24:50.374Z,86.00
2022-12-15T02:27:41.465Z,86.00
2022-12-15T02:31:12.415Z,85.20
2022-12-15T02:34:05.828Z,85.90
2022-12-15T02:36:57.680Z,86.60
2022-12-15T02:39:43.145Z,85.50
2022-12-15T02:42:30.939Z,85.10
2022-12-15T02:45:23.119Z,85.50
2022-12-15T02:48:28.502Z,85.70
2022-12-15T02:52:06.523Z,85.70
2022-12-15T02:55:22.576Z,85.70
2022-12-15T02:58:08.153Z,85.50
2022-12-15T03:01:01.902Z,85.20
2022-12-15T03:03:50.230Z,85.80
2022-12-15T03:06:38.305Z,86.00
2022-12-15T03:09:28.164Z,86.40
2022-12-15T03:12:15.526Z,86.30
2022-12-15T03:15:00.923Z,85.50
2022-12-15T03:17:46.288Z,85.00
2022-12-15T03:20:31.595Z,84.20
2022-12-15T03:23:16.956Z,83.70
2022-12-15T03:26:02.667Z,83.10
2022-12-15T03:28:50.354Z,82.40
2022-12-15T03:31:35.983Z,82.40
2022-12-15T03:34:21.729Z,82.30
2022-12-15T03:37:07.048Z,81.60
2022-12-15T03:39:52.499Z,80.60
2022-12-15T03:42:49.915Z,80.10
2022-12-15T03:45:35.156Z,80.00
2022-12-15T03:48:20.614Z,79.80
2022-12-15T03:51:08.445Z,80.30
2022-12-15T03:53:54.174Z,80.60
2022-12-15T03:56:39.471Z,80.80
2022-12-15T03:59:24.825Z,80.70
2022-12-15T04:02:12.260Z,79.90
2022-12-15T04:05:00.361Z,79.70
2022-12-15T04:07:46.363Z,78.90
2022-12-15T04:10:35.063Z,78.80
2022-12-15T04:13:20.623Z,78.80
2022-12-15T04:16:06.196Z,78.90
2022-12-15T04:19:11.709Z,79.00
2022-12-15T04:22:02.531Z,79.30
2022-12-15T04:25:06.794Z,78.90
2022-12-15T04:28:13.270Z,79.20
2022-12-15T04:31:22.161Z,79.20
2022-12-15T04:34:31.391Z,79.20
2022-12-15T04:37:37.700Z,79.40
2022-12-15T04:40:41.622Z,79.80
2022-12-15T04:43:45.576Z,79.30
2022-12-15T04:46:49.573Z,79.40
2022-12-15T04:49:54.095Z,79.50
2022-12-15T04:52:57.817Z,79.30
2022-12-15T04:56:02.204Z,79.50
2022-12-15T04:59:06.776Z,79.30
2022-12-15T05:02:11.079Z,79.60
2022-12-15T05:05:15.181Z,80.40
2022-12-15T05:08:19.307Z,80.40
2022-12-15T05:11:23.284Z,80.10
2022-12-15T05:14:27.631Z,79.60
2022-12-15T05:17:36.944Z,78.20
2022-12-15T05:20:50.049Z,78.00
2022-12-15T05:23:54.057Z,78.00
2022-12-15T05:26:58.378Z,77.20
2022-12-15T05:30:02.110Z,75.90
2022-12-15T05:32:48.308Z,75.60
2022-12-15T05:35:38.388Z,75.50
2022-12-15T05:38:23.617Z,75.20
2022-12-15T05:41:09.175Z,75.30
2022-12-15T05:43:54.512Z,75.40
2022-12-15T05:46:40.142Z,75.60
2022-12-15T05:49:25.896Z,76.20
2022-12-15T05:52:11.047Z,77.10
2022-12-15T05:54:56.598Z,77.40
2022-12-15T05:57:42.235Z,77.60
2022-12-15T06:00:29.794Z,77.60
2022-12-15T06:03:15.258Z,77.70
2022-12-15T06:06:01.810Z,77.70
2022-12-15T06:08:50.291Z,77.80
2022-12-15T06:11:37.854Z,77.80
2022-12-15T06:14:23.262Z,77.80
2022-12-15T06:17:08.723Z,77.10
2022-12-15T06:19:54.283Z,77.00
2022-12-15T06:22:41.175Z,77.00
2022-12-15T06:25:29.108Z,77.00
2022-12-15T06:28:14.808Z,76.70
2022-12-15T06:31:03.198Z,76.90
2022-12-15T06:33:51.687Z,76.50
2022-12-15T06:36:40.779Z,76.50
2022-12-15T06:39:26.396Z,76.30
2022-12-15T06:42:11.897Z,76.40
2022-12-15T06:44:57.388Z,76.30
2022-12-15T06:47:42.797Z,76.20
2022-12-15T06:50:28.197Z,75.80
2022-12-15T06:53:15.315Z,75.80
2022-12-15T06:56:02.130Z,75.70
2022-12-15T06:58:48.705Z,75.80
2022-12-15T07:01:37.243Z,75.80
2022-12-15T07:04:22.933Z,75.90
2022-12-15T07:07:10.234Z,75.90
2022-12-15T07:09:56.253Z,75.80
2022-12-15T07:12:44.038Z,75.70
2022-12-15T07:15:35.109Z,76.00
2022-12-15T07:18:22.326Z,75.80
2022-12-15T07:21:09.453Z,75.80
2022-12-15T07:23:56.727Z,76.00
2022-12-15T07:26:46.105Z,76.00
2022-12-15T07:29:34.465Z,75.80
2022-12-15T07:32:20.832Z,75.40
2022-12-15T07:35:08.373Z,75.30
2022-12-15T07:37:56.683Z,75.00
2022-12-15T07:40:41.972Z,75.00
2022-12-15T07:43:29.241Z,75.00
2022-12-15T07:46:18.827Z,74.80
2022-12-15T07:49:06.796Z,74.70
2022-12-15T07:51:58.677Z,74.60
2022-12-15T07:54:45.397Z,74.50
2022-12-15T07:57:32.872Z,74.30
2022-12-15T08:00:20.204Z,74.10
2022-12-15T08:03:08.237Z,74.20
2022-12-15T08:05:56.621Z,74.10
2022-12-15T08:08:50.276Z,74.00
2022-12-15T08:11:37.012Z,73.90
2022-12-15T08:14:24.993Z,73.90
2022-12-15T08:17:10.349Z,73.70
2022-12-15T08:19:58.932Z,73.50
2022-12-15T08:22:44.320Z,73.40
2022-12-15T08:25:30.436Z,73.30
2022-12-15T08:28:15.739Z,73.10
2022-12-15T08:31:10.420Z,73.00
2022-12-15T08:33:58.520Z,72.90
2022-12-15T08:36:43.711Z,72.60
2022-12-15T08:39:31.367Z,72.40
2022-12-15T08:42:18.919Z,72.40
2022-12-15T08:45:07.817Z,72.30
2022-12-15T08:47:55.601Z,72.50
2022-12-15T08:50:45.845Z,72.20
2022-12-15T08:53:34.240Z,71.80
2022-12-15T08:56:20.907Z,71.70
2022-12-15T08:59:06.893Z,71.60
2022-12-15T09:01:53.854Z,71.00
2022-12-15T09:04:40.869Z,71.20
2022-12-15T09:07:26.728Z,71.10
2022-12-15T09:10:12.215Z,71.00
2022-12-15T09:12:57.735Z,71.10
2022-12-15T09:16:08.815Z,71.00
2022-12-15T09:18:53.860Z,70.90
2022-12-15T09:21:40.096Z,70.80
2022-12-15T09:24:34.413Z,70.60
2022-12-15T09:27:21.047Z,70.90
2022-12-15T09:30:09.322Z,70.60
2022-12-15T09:32:54.908Z,70.70
2022-12-15T09:35:40.286Z,70.60
2022-12-15T09:38:26.266Z,70.60
2022-12-15T09:41:34.419Z,70.50
2022-12-15T09:44:22.654Z,70.40
2022-12-15T09:47:52.967Z,70.20
2022-12-15T09:50:39.349Z,70.00
2022-12-15T09:53:54.321Z,69.60
2022-12-15T09:56:50.272Z,69.40
2022-12-15T09:59:46.079Z,69.00
2022-12-15T10:02:45.351Z,69.10
2022-12-15T10:06:14.236Z,69.20
2022-12-15T10:08:50.511Z,69.30
2022-12-15T10:11:50.927Z,69.40
2022-12-15T10:14:44.929Z,69.40
2022-12-15T10:17:35.191Z,69.30
2022-12-15T10:20:27.238Z,69.30
2022-12-15T10:23:17.927Z,68.00
2022-12-15T10:26:21.729Z,67.60
2022-12-15T10:29:10.560Z,66.80
2022-12-15T10:32:03.210Z,66.00
2022-12-15T10:34:49.038Z,65.10
2022-12-15T10:37:36.476Z,64.90
2022-12-15T10:40:58.028Z,64.60
2022-12-15T10:43:50.241Z,64.20
2022-12-15T10:46:35.855Z,63.30
2022-12-15T10:49:25.481Z,63.80
2022-12-15T10:52:35.686Z,62.60
2022-12-15T10:55:40.024Z,61.60
2022-12-15T10:58:25.377Z,61.30
2022-12-15T11:01:19.929Z,61.90
2022-12-15T11:04:26.943Z,61.60
2022-12-15T11:07:13.882Z,61.50
2022-12-15T11:10:03.472Z,62.30
2022-12-15T11:13:15.635Z,62.60
2022-12-15T11:16:20.123Z,61.40
2022-12-15T11:19:21.711Z,61.70
2022-12-15T11:22:24.343Z,61.00
2022-12-15T11:25:42.011Z,61.10
2022-12-15T11:28:42.659Z,60.80
2022-12-15T11:31:36.937Z,59.70
2022-12-15T11:34:32.396Z,59.70
2022-12-15T11:37:38.712Z,58.90
2022-12-15T11:40:46.571Z,57.50
2022-12-15T11:44:06.300Z,57.80
2022-12-15T11:47:07.241Z,57.00
2022-12-15T11:50:11.456Z,55.70
2022-12-15T11:53:21.079Z,56.30
2022-12-15T11:56:23.898Z,53.90
2022-12-15T11:59:32.691Z,54.60
2022-12-15T12:02:41.525Z,54.20
2022-12-15T12:05:54.872Z,54.30
2022-12-15T12:09:07.977Z,54.20
2022-12-15T12:12:12.094Z,52.90
2022-12-15T12:15:25.429Z,53.00
2022-12-15T12:18:32.285Z,52.50
2022-12-15T12:21:33.849Z,52.00
2022-12-15T12:24:41.740Z,51.70
2022-12-15T12:27:53.181Z,51.80
2022-12-15T12:30:48.701Z,51.90
2022-12-15T12:33:43.416Z,52.60
2022-12-15T12:36:28.965Z,53.30
2022-12-15T12:39:20.511Z,54.30
2022-12-15T12:42:42.846Z,55.30
2022-12-15T12:45:47.273Z,56.00
2022-12-15T12:48:38.835Z,56.70
2022-12-15T12:51:31.708Z,57.30
2022-12-15T12:54:36.051Z,57.70
2022-12-15T12:57:27.795Z,58.30
2022-12-15T13:00:21.059Z,58.80
2022-12-15T13:03:16.491Z,59.10
2022-12-15T13:06:37.505Z,59.60
2022-12-15T13:09:24.948Z,59.90
2022-12-15T13:12:53.525Z,59.80
2022-12-15T13:15:51.093Z,59.70
2022-12-15T13:18:56.651Z,59.70
2022-12-15T13:22:02.478Z,59.90
2022-12-15T13:24:50.916Z,60.00
2022-12-15T13:27:38.079Z,60.30
2022-12-15T13:30:26.377Z,60.50
2022-12-15T13:33:19.650Z,61.20
2022-12-15T13:36:05.594Z,61.00
2022-12-15T13:38:56.716Z,61.20
2022-12-15T13:42:32.551Z,60.70
2022-12-15T13:45:24.543Z,55.00
2022-12-15T13:48:19.623Z,51.90
2022-12-15T13:51:17.815Z,54.70
2022-12-15T13:54:17.208Z,56.70
2022-12-15T13:57:20.126Z,57.80
2022-12-15T14:00:20.862Z,58.80
2022-12-15T14:03:10.510Z,59.80
2022-12-15T14:06:00.363Z,60.60
2022-12-15T14:08:50.805Z,61.20
2022-12-15T14:11:58.358Z,62.20
2022-12-15T14:14:49.035Z,62.20
2022-12-15T14:17:39.555Z,62.70
2022-12-15T14:20:39.859Z,63.30
2022-12-15T14:23:38.650Z,63.60
2022-12-15T14:26:30.957Z,64.10
2022-12-15T14:29:17.618Z,64.40
2022-12-15T14:32:03.559Z,65.00
2022-12-15T14:34:51.051Z,65.50
2022-12-15T14:37:40.884Z,65.90
2022-12-15T14:40:29.194Z,66.20
2022-12-15T14:43:21.553Z,66.50
2022-12-15T14:46:11.117Z,67.00
2022-12-15T14:49:01.176Z,68.10
2022-12-15T14:51:52.589Z,68.30
2022-12-15T14:55:00.829Z,69.00
2022-12-15T14:57:47.853Z,69.10
2022-12-15T15:00:36.245Z,70.00
2022-12-15T15:03:39.401Z,70.10
2022-12-15T15:06:32.304Z,70.70
2022-12-15T15:09:28.191Z,71.10
2022-12-15T15:12:23.765Z,71.00
2022-12-15T15:15:16.247Z,71.60
2022-12-15T15:18:02.136Z,72.20
2022-12-15T15:20:56.877Z,72.40
2022-12-15T15:23:42.473Z,73.30
2022-12-15T15:26:31.562Z,73.10
2022-12-15T15:29:43.578Z,73.10
2022-12-15T15:32:30.970Z,73.40
2022-12-15T15:35:16.327Z,73.60
2022-12-15T15:38:07.834Z,74.00
2022-12-15T15:40:55.712Z,75.60
2022-12-15T15:43:41.788Z,74.80
2022-12-15T15:46:33.373Z,74.80
2022-12-15T15:49:21.795Z,75.00
2022-12-15T15:52:09.258Z,75.30
2022-12-15T15:54:54.929Z,75.40
2022-12-15T15:57:41.086Z,75.60
2022-12-15T16:00:26.760Z,76.40
2022-12-15T16:03:12.525Z,76.70
2022-12-15T16:05:58.790Z,76.50
2022-12-15T16:08:47.208Z,76.80
2022-12-15T16:11:33.285Z,77.00
2022-12-15T16:14:19.284Z,77.10
2022-12-15T16:17:04.753Z,77.70
2022-12-15T16:19:50.864Z,78.10
2022-12-15T16:22:36.392Z,78.50
2022-12-15T16:25:42.402Z,78.60
2022-12-15T16:28:36.216Z,79.00
2022-12-15T16:31:42.012Z,79.40
2022-12-15T16:34:30.756Z,79.60
2022-12-15T16:37:27.046Z,79.30
2022-12-15T16:40:24.468Z,79.20
2022-12-15T16:43:21.363Z,79.70
2022-12-15T16:46:06.972Z,80.30
2022-12-15T16:48:54.922Z,79.90
2022-12-15T16:51:50.359Z,80.30
2022-12-15T16:54:35.627Z,80.40
2022-12-15T16:57:25.680Z,80.40
2022-12-15T17:00:24.786Z,80.40
2022-12-15T17:03:18.650Z,80.40
2022-12-15T17:06:10.446Z,81.40
2022-12-15T17:08:59.236Z,81.60
2022-12-15T17:11:46.779Z,81.40
2022-12-15T17:14:35.113Z,81.80
2022-12-15T17:17:22.394Z,81.60
2022-12-15T17:20:30.709Z,81.70
2022-12-15T17:23:23.438Z,81.80
2022-12-15T17:26:28.502Z,82.10
2022-12-15T17:29:31.251Z,81.90
2022-12-15T17:32:16.826Z,82.40
2022-12-15T17:35:02.417Z,82.70
2022-12-15T17:37:47.987Z,83.00
2022-12-15T17:40:34.003Z,82.90
2022-12-15T17:43:21.982Z,83.20
2022-12-15T17:46:08.189Z,83.60
2022-12-15T17:48:55.952Z,83.90
2022-12-15T17:51:45.934Z,83.50
2022-12-15T17:54:31.238Z,83.60
2022-12-15T17:57:18.252Z,83.70
2022-12-15T18:00:21.463Z,83.70
2022-12-15T18:03:13.022Z,83.70
2022-12-15T18:05:58.788Z,84.00
2022-12-15T18:08:48.949Z,84.00
2022-12-15T18:11:34.424Z,83.80
2022-12-15T18:14:21.397Z,83.70
2022-12-15T18:17:06.720Z,84.20
2022-12-15T18:19:52.236Z,84.90
2022-12-15T18:22:37.623Z,84.30
2022-12-15T18:25:26.082Z,84.00
2022-12-15T18:28:25.213Z,84.10
2022-12-15T18:31:28.214Z,84.30
2022-12-15T18:34:18.858Z,85.10
2022-12-15T18:37:19.611Z,84.60
2022-12-15T18:40:05.432Z,85.00
2022-12-15T18:42:54.439Z,85.00
2022-12-15T18:45:39.992Z,86.10
2022-12-15T18:48:33.644Z,85.10
2022-12-15T18:51:22.232Z,85.00
2022-12-15T18:54:16.766Z,85.00
2022-12-15T18:57:09.204Z,84.90
2022-12-15T19:00:01.071Z,84.80
2022-12-15T19:02:48.676Z,85.00
2022-12-15T19:05:34.728Z,85.10
2022-12-15T19:08:26.474Z,85.00
2022-12-15T19:11:19.328Z,84.90
2022-12-15T19:14:31.480Z,85.00
2022-12-15T19:17:40.461Z,85.00
2022-12-15T19:20:46.610Z,85.50
2022-12-15T19:23:32.338Z,85.50
2022-12-15T19:26:17.983Z,85.90
2022-12-15T19:29:18.099Z,85.60
2022-12-15T19:32:04.149Z,85.50
2022-12-15T19:34:50.579Z,86.10
2022-12-15T19:37:38.239Z,87.10
2022-12-15T19:40:34.579Z,86.20
2022-12-15T19:43:23.479Z,86.40
2022-12-15T19:46:20.082Z,86.10
2022-12-15T19:49:08.113Z,86.10
2022-12-15T19:51:53.461Z,86.30
2022-12-15T19:54:38.882Z,86.00
2022-12-15T19:57:24.926Z,85.80
2022-12-15T20:00:21.652Z,85.80
2022-12-15T20:03:07.999Z,85.90
2022-12-15T20:05:56.030Z,86.00
2022-12-15T20:08:45.497Z,86.00
2022-12-15T20:11:33.341Z,86.50
2022-12-15T20:14:19.405Z,86.60
2022-12-15T20:17:05.191Z,86.50
2022-12-15T20:19:50.573Z,86.20
2022-12-15T20:22:35.883Z,86.20
2022-12-15T20:25:26.217Z,86.30
2022-12-15T20:28:24.205Z,86.10
2022-12-15T20:31:17.270Z,86.20
2022-12-15T20:34:02.658Z,86.50
2022-12-15T20:36:48.524Z,86.80
2022-12-15T20:39:38.076Z,86.40
2022-12-15T20:42:24.503Z,86.60
2022-12-15T20:45:14.879Z,86.60
2022-12-15T20:48:00.665Z,86.30
2022-12-15T20:50:48.809Z,86.50
2022-12-15T20:53:40.177Z,86.30
2022-12-15T20:56:26.228Z,86.10
2022-12-15T20:59:12.056Z,86.30
2022-12-15T21:01:57.752Z,86.20
2022-12-15T21:04:43.799Z,86.90
2022-12-15T21:07:31.632Z,86.40
2022-12-15T21:10:21.016Z,86.80
2022-12-15T21:13:32.653Z,86.90
2022-12-15T21:16:21.194Z,86.60
2022-12-15T21:19:20.536Z,86.70
2022-12-15T21:22:17.590Z,86.60
2022-12-15T21:25:16.939Z,86.20
2022-12-15T21:28:02.384Z,86.00
2022-12-15T21:30:48.307Z,85.90
2022-12-15T21:33:36.736Z,86.10
2022-12-15T21:36:22.029Z,86.40
2022-12-15T21:39:11.599Z,85.90
2022-12-15T21:42:02.000Z,85.50
2022-12-15T21:44:47.535Z,86.00
2022-12-15T21:47:52.066Z,85.80
2022-12-15T21:50:39.476Z,86.20
2022-12-15T21:53:27.519Z,86.20
2022-12-15T21:56:18.288Z,86.10
2022-12-15T21:59:11.743Z,85.70
2022-12-15T22:01:57.560Z,86.00
2022-12-15T22:04:45.777Z,86.20
2022-12-15T22:07:31.128Z,86.20
2022-12-15T22:10:18.193Z,85.90
2022-12-15T22:13:06.138Z,85.50
2022-12-15T22:15:53.575Z,85.20
2022-12-15T22:18:40.539Z,85.00
2022-12-15T22:21:26.058Z,85.70
2022-12-15T22:24:11.623Z,85.80
2022-12-15T22:26:56.923Z,85.50
2022-12-15T22:29:42.523Z,85.00
2022-12-15T22:32:28.063Z,85.10
2022-12-15T22:35:23.135Z,85.20
2022-12-15T22:38:08.375Z,84.80
2022-12-15T22:40:57.054Z,85.00
2022-12-15T22:43:44.413Z,85.30
2022-12-15T22:46:34.686Z,85.50
2022-12-15T22:49:31.445Z,85.50
2022-12-15T22:52:20.959Z,85.10
2022-12-15T22:55:07.340Z,85.00
2022-12-15T22:58:05.849Z,85.10
2022-12-15T23:00:54.819Z,85.40
2022-12-15T23:03:42.567Z,85.20
2022-12-15T23:06:31.093Z,84.80
2022-12-15T23:09:18.758Z,84.70
2022-12-15T23:12:04.394Z,84.40
2022-12-15T23:15:22.444Z,84.30
2022-12-15T23:18:11.171Z,84.30
2022-12-15T23:20:57.325Z,84.30
2022-12-15T23:23:43.191Z,84.10
2022-12-15T23:26:29.411Z,84.10
2022-12-15T23:29:14.876Z,84.20
2022-12-15T23:32:02.879Z,84.30
2022-12-15T23:34:48.294Z,84.20
2022-12-15T23:37:35.992Z,84.70
2022-12-15T23:40:23.787Z,85.00
2022-12-15T23:43:09.226Z,84.70
2022-12-15T23:46:01.934Z,84.40
2022-12-15T23:48:49.873Z,84.40
2022-12-15T23:51:37.814Z,84.60
2022-12-15T23:54:25.560Z,84.80
2022-12-15T23:57:13.838Z,84.70
2022-12-15T23:59:59.317Z,84.90
